sensor_id;sensor_type;location;lat;lon;timestamp;pressure;altitude;pressure_sealevel;temperature;humidity
55932;BME280;41837;55.700;37.984;2023-08-07T00:01:11;100127.16;;;19.82;100.00
55932;BME280;41837;55.700;37.984;2023-08-07T00:03:37;100135.25;;;19.80;100.00
55932;BME280;41837;55.700;37.984;2023-08-07T00:06:03;100122.44;;;19.74;100.00
55932;BME280;41837;55.700;37.984;2023-08-07T00:08:30;100129.88;;;19.69;100.00
55932;BME280;41837;55.700;37.984;2023-08-07T00:11:05;100124.31;;;19.61;100.00
55932;BME280;41837;55.700;37.984;2023-08-07T00:13:31;100123.44;;;19.60;100.00
55932;BME280;41837;55.700;37.984;2023-08-07T00:15:57;100124.25;;;19.49;100.00
55932;BME280;41837;55.700;37.984;2023-08-07T00:18:23;100126.28;;;19.46;100.00
55932;BME280;41837;55.700;37.984;2023-08-07T00:20:50;100131.69;;;19.44;100.00
55932;BME280;41837;55.700;37.984;2023-08-07T00:23:16;100138.53;;;19.35;100.00
55932;BME280;41837;55.700;37.984;2023-08-07T00:25:43;100133.44;;;19.32;100.00
55932;BME280;41837;55.700;37.984;2023-08-07T00:28:09;100140.06;;;19.27;100.00
55932;BME280;41837;55.700;37.984;2023-08-07T00:30:35;100139.19;;;19.26;100.00
55932;BME280;41837;55.700;37.984;2023-08-07T00:33:01;100138.56;;;19.23;100.00
55932;BME280;41837;55.700;37.984;2023-08-07T00:35:28;100143.03;;;19.22;100.00
55932;BME280;41837;55.700;37.984;2023-08-07T00:37:55;100142.31;;;19.20;100.00
55932;BME280;41837;55.700;37.984;2023-08-07T00:40:21;100134.75;;;19.27;100.00
55932;BME280;41837;55.700;37.984;2023-08-07T00:42:47;100131.75;;;19.31;100.00
55932;BME280;41837;55.700;37.984;2023-08-07T00:45:14;100131.94;;;19.41;100.00
55932;BME280;41837;55.700;37.984;2023-08-07T00:47:41;100122.41;;;19.38;100.00
55932;BME280;41837;55.700;37.984;2023-08-07T00:50:07;100124.19;;;19.38;100.00
55932;BME280;41837;55.700;37.984;2023-08-07T00:52:34;100118.06;;;19.37;100.00
55932;BME280;41837;55.700;37.984;2023-08-07T00:55:00;100115.63;;;19.34;100.00
55932;BME280;41837;55.700;37.984;2023-08-07T00:57:27;100118.63;;;19.30;100.00
55932;BME280;41837;55.700;37.984;2023-08-07T00:59:53;100117.44;;;19.34;100.00
55932;BME280;41837;55.700;37.984;2023-08-07T01:02:19;100127.03;;;19.24;100.00
55932;BME280;41837;55.700;37.984;2023-08-07T01:04:46;100125.03;;;19.14;100.00
55932;BME280;41837;55.700;37.984;2023-08-07T01:07:12;100123.59;;;18.97;100.00
55932;BME280;41837;55.700;37.984;2023-08-07T01:09:41;100129.38;;;18.91;100.00
55932;BME280;41837;55.700;37.984;2023-08-07T01:12:18;100129.13;;;18.81;100.00
55932;BME280;41837;55.700;37.984;2023-08-07T01:15:12;100132.97;;;18.77;100.00
55932;BME280;41837;55.700;37.984;2023-08-07T01:17:41;100127.16;;;18.72;100.00
55932;BME280;41837;55.700;37.984;2023-08-07T01:20:08;100126.00;;;18.63;100.00
55932;BME280;41837;55.700;37.984;2023-08-07T01:22:35;100130.91;;;18.57;100.00
55932;BME280;41837;55.700;37.984;2023-08-07T01:25:01;100123.69;;;18.46;100.00
55932;BME280;41837;55.700;37.984;2023-08-07T01:27:42;100125.72;;;18.42;100.00
55932;BME280;41837;55.700;37.984;2023-08-07T01:30:22;100127.94;;;18.36;100.00
55932;BME280;41837;55.700;37.984;2023-08-07T01:33:09;100125.50;;;18.33;100.00
55932;BME280;41837;55.700;37.984;2023-08-07T01:35:41;100129.84;;;18.34;100.00
55932;BME280;41837;55.700;37.984;2023-08-07T01:38:09;100130.78;;;18.33;100.00
55932;BME280;41837;55.700;37.984;2023-08-07T01:40:37;100119.66;;;18.27;100.00
55932;BME280;41837;55.700;37.984;2023-08-07T01:43:05;100122.84;;;18.33;100.00
55932;BME280;41837;55.700;37.984;2023-08-07T01:45:31;100122.00;;;18.32;100.00
55932;BME280;41837;55.700;37.984;2023-08-07T01:47:57;100113.97;;;18.34;100.00
55932;BME280;41837;55.700;37.984;2023-08-07T01:50:24;100114.50;;;18.39;100.00
55932;BME280;41837;55.700;37.984;2023-08-07T01:52:50;100110.13;;;18.38;100.00
55932;BME280;41837;55.700;37.984;2023-08-07T01:55:18;100118.38;;;18.46;100.00
55932;BME280;41837;55.700;37.984;2023-08-07T01:57:51;100104.22;;;18.47;100.00
55932;BME280;41837;55.700;37.984;2023-08-07T02:00:17;100113.00;;;18.48;100.00
55932;BME280;41837;55.700;37.984;2023-08-07T02:02:44;100112.25;;;18.45;100.00
55932;BME280;41837;55.700;37.984;2023-08-07T02:05:13;100124.31;;;18.50;100.00
55932;BME280;41837;55.700;37.984;2023-08-07T02:07:41;100118.19;;;18.49;100.00
55932;BME280;41837;55.700;37.984;2023-08-07T02:10:07;100109.19;;;18.52;100.00
55932;BME280;41837;55.700;37.984;2023-08-07T02:12:36;100107.91;;;18.57;100.00
55932;BME280;41837;55.700;37.984;2023-08-07T02:15:05;100102.97;;;18.90;100.00
55932;BME280;41837;55.700;37.984;2023-08-07T02:17:34;100101.38;;;19.60;100.00
55932;BME280;41837;55.700;37.984;2023-08-07T02:20:04;100076.69;;;20.40;100.00
55932;BME280;41837;55.700;37.984;2023-08-07T02:22:32;100060.13;;;20.93;100.00
55932;BME280;41837;55.700;37.984;2023-08-07T02:24:58;100050.28;;;21.37;100.00
55932;BME280;41837;55.700;37.984;2023-08-07T02:27:24;100041.88;;;21.74;100.00
55932;BME280;41837;55.700;37.984;2023-08-07T02:29:50;100029.38;;;22.26;100.00
55932;BME280;41837;55.700;37.984;2023-08-07T02:32:20;100027.69;;;22.56;100.00
55932;BME280;41837;55.700;37.984;2023-08-07T02:34:47;100022.66;;;22.82;100.00
55932;BME280;41837;55.700;37.984;2023-08-07T02:37:13;100026.38;;;22.50;100.00
55932;BME280;41837;55.700;37.984;2023-08-07T02:39:39;100019.06;;;22.93;100.00
55932;BME280;41837;55.700;37.984;2023-08-07T02:42:06;100008.66;;;23.49;100.00
55932;BME280;41837;55.700;37.984;2023-08-07T02:44:32;100006.78;;;23.88;100.00
55932;BME280;41837;55.700;37.984;2023-08-07T02:46:58;100006.84;;;23.96;100.00
55932;BME280;41837;55.700;37.984;2023-08-07T02:49:24;100014.56;;;23.13;100.00
55932;BME280;41837;55.700;37.984;2023-08-07T02:51:52;100020.53;;;22.26;100.00
55932;BME280;41837;55.700;37.984;2023-08-07T02:54:18;99997.66;;;23.71;100.00
55932;BME280;41837;55.700;37.984;2023-08-07T02:56:44;100008.63;;;23.58;100.00
55932;BME280;41837;55.700;37.984;2023-08-07T02:59:10;100007.25;;;23.54;100.00
55932;BME280;41837;55.700;37.984;2023-08-07T03:01:36;100005.97;;;23.58;100.00
55932;BME280;41837;55.700;37.984;2023-08-07T03:04:02;99989.16;;;24.79;100.00
55932;BME280;41837;55.700;37.984;2023-08-07T03:06:29;99992.56;;;25.25;100.00
55932;BME280;41837;55.700;37.984;2023-08-07T03:08:55;100006.56;;;24.65;100.00
55932;BME280;41837;55.700;37.984;2023-08-07T03:11:21;99990.94;;;25.50;100.00
55932;BME280;41837;55.700;37.984;2023-08-07T03:13:47;99997.63;;;24.56;100.00
55932;BME280;41837;55.700;37.984;2023-08-07T03:16:14;99991.63;;;25.52;100.00
55932;BME280;41837;55.700;37.984;2023-08-07T03:18:41;99988.44;;;25.12;100.00
55932;BME280;41837;55.700;37.984;2023-08-07T03:21:07;99982.38;;;25.46;99.21
55932;BME280;41837;55.700;37.984;2023-08-07T03:23:34;99979.53;;;25.74;98.96
55932;BME280;41837;55.700;37.984;2023-08-07T03:26:09;99979.44;;;26.18;98.36
55932;BME280;41837;55.700;37.984;2023-08-07T03:28:38;99977.47;;;25.94;98.47
55932;BME280;41837;55.700;37.984;2023-08-07T03:31:04;99974.25;;;25.56;100.00
55932;BME280;41837;55.700;37.984;2023-08-07T03:33:33;99968.81;;;25.04;100.00
55932;BME280;41837;55.700;37.984;2023-08-07T03:36:00;99980.31;;;25.40;100.00
55932;BME280;41837;55.700;37.984;2023-08-07T03:38:28;99974.63;;;25.61;98.83
55932;BME280;41837;55.700;37.984;2023-08-07T03:40:56;99977.41;;;25.52;100.00
55932;BME280;41837;55.700;37.984;2023-08-07T03:43:22;99979.22;;;24.89;100.00
55932;BME280;41837;55.700;37.984;2023-08-07T03:45:54;99974.75;;;26.20;94.90
55932;BME280;41837;55.700;37.984;2023-08-07T03:48:22;99966.25;;;25.91;93.70
55932;BME280;41837;55.700;37.984;2023-08-07T03:50:48;99971.09;;;25.35;96.74
55932;BME280;41837;55.700;37.984;2023-08-07T03:53:15;99983.47;;;25.00;100.00
55932;BME280;41837;55.700;37.984;2023-08-07T03:55:50;99971.03;;;25.53;99.30
55932;BME280;41837;55.700;37.984;2023-08-07T03:58:18;99970.56;;;25.57;95.88
55932;BME280;41837;55.700;37.984;2023-08-07T04:00:44;99966.34;;;25.81;93.11
55932;BME280;41837;55.700;37.984;2023-08-07T04:03:11;99963.84;;;26.65;90.04
55932;BME280;41837;55.700;37.984;2023-08-07T04:05:37;99961.84;;;25.55;92.42
55932;BME280;41837;55.700;37.984;2023-08-07T04:08:03;99971.59;;;25.56;94.96
55932;BME280;41837;55.700;37.984;2023-08-07T04:10:30;99968.31;;;25.97;91.15
55932;BME280;41837;55.700;37.984;2023-08-07T04:12:56;99971.22;;;26.63;86.67
55932;BME280;41837;55.700;37.984;2023-08-07T04:15:23;99971.09;;;25.87;91.14
55932;BME280;41837;55.700;37.984;2023-08-07T04:17:49;99963.00;;;26.13;89.09
55932;BME280;41837;55.700;37.984;2023-08-07T04:20:15;99961.66;;;26.60;88.75
55932;BME280;41837;55.700;37.984;2023-08-07T04:22:42;99961.91;;;26.40;88.59
55932;BME280;41837;55.700;37.984;2023-08-07T04:25:08;99954.97;;;27.05;85.61
55932;BME280;41837;55.700;37.984;2023-08-07T04:27:36;99954.81;;;27.48;84.02
55932;BME280;41837;55.700;37.984;2023-08-07T04:30:03;99946.28;;;27.36;83.14
55932;BME280;41837;55.700;37.984;2023-08-07T04:32:30;99960.84;;;26.68;83.21
55932;BME280;41837;55.700;37.984;2023-08-07T04:34:58;99955.31;;;27.18;83.17
55932;BME280;41837;55.700;37.984;2023-08-07T04:37:25;99966.72;;;26.79;83.23
55932;BME280;41837;55.700;37.984;2023-08-07T04:39:51;99964.94;;;26.46;85.83
55932;BME280;41837;55.700;37.984;2023-08-07T04:42:17;99961.03;;;26.83;83.91
55932;BME280;41837;55.700;37.984;2023-08-07T04:44:43;99966.03;;;26.69;84.02
55932;BME280;41837;55.700;37.984;2023-08-07T04:47:09;99954.81;;;27.48;81.44
55932;BME280;41837;55.700;37.984;2023-08-07T04:49:35;99950.13;;;27.33;80.97
55932;BME280;41837;55.700;37.984;2023-08-07T04:52:01;99954.06;;;27.79;75.37
55932;BME280;41837;55.700;37.984;2023-08-07T04:54:28;99950.28;;;27.57;78.55
55932;BME280;41837;55.700;37.984;2023-08-07T04:56:54;99952.03;;;27.89;78.61
55932;BME280;41837;55.700;37.984;2023-08-07T04:59:21;99948.88;;;27.77;75.87
55932;BME280;41837;55.700;37.984;2023-08-07T05:01:47;99940.41;;;27.24;78.62
55932;BME280;41837;55.700;37.984;2023-08-07T05:04:13;99955.63;;;26.66;81.03
55932;BME280;41837;55.700;37.984;2023-08-07T05:06:39;99948.44;;;26.83;81.19
55932;BME280;41837;55.700;37.984;2023-08-07T05:09:06;99947.78;;;26.81;79.90
55932;BME280;41837;55.700;37.984;2023-08-07T05:11:32;99944.59;;;27.18;78.79
55932;BME280;41837;55.700;37.984;2023-08-07T05:13:59;99957.25;;;26.51;82.58
55932;BME280;41837;55.700;37.984;2023-08-07T05:16:25;99948.47;;;27.16;79.80
55932;BME280;41837;55.700;37.984;2023-08-07T05:18:51;99939.59;;;27.96;76.60
55932;BME280;41837;55.700;37.984;2023-08-07T05:21:18;99930.97;;;28.09;73.20
55932;BME280;41837;55.700;37.984;2023-08-07T05:23:44;99931.09;;;28.16;72.55
55932;BME280;41837;55.700;37.984;2023-08-07T05:26:13;99930.13;;;27.44;77.32
55932;BME280;41837;55.700;37.984;2023-08-07T05:28:39;99931.47;;;27.57;77.27
55932;BME280;41837;55.700;37.984;2023-08-07T05:31:05;99920.75;;;27.40;77.26
55932;BME280;41837;55.700;37.984;2023-08-07T05:33:32;99914.41;;;28.60;72.46
55932;BME280;41837;55.700;37.984;2023-08-07T05:35:58;99916.59;;;28.56;71.26
55932;BME280;41837;55.700;37.984;2023-08-07T05:38:24;99934.56;;;27.85;73.57
55932;BME280;41837;55.700;37.984;2023-08-07T05:40:51;99930.50;;;27.16;75.19
55932;BME280;41837;55.700;37.984;2023-08-07T05:43:17;99922.16;;;27.84;72.90
55932;BME280;41837;55.700;37.984;2023-08-07T05:45:43;99912.25;;;28.47;71.88
55932;BME280;41837;55.700;37.984;2023-08-07T05:48:12;99933.88;;;28.31;70.05
55932;BME280;41837;55.700;37.984;2023-08-07T05:50:38;99915.41;;;27.96;71.49
55932;BME280;41837;55.700;37.984;2023-08-07T05:53:04;99909.41;;;28.49;69.37
55932;BME280;41837;55.700;37.984;2023-08-07T05:55:31;99914.88;;;28.32;69.00
55932;BME280;41837;55.700;37.984;2023-08-07T05:57:57;99910.50;;;28.62;66.98
55932;BME280;41837;55.700;37.984;2023-08-07T06:00:23;99910.56;;;28.46;68.21
55932;BME280;41837;55.700;37.984;2023-08-07T06:02:50;99899.44;;;28.95;64.66
55932;BME280;41837;55.700;37.984;2023-08-07T06:05:16;99907.44;;;29.27;63.21
55932;BME280;41837;55.700;37.984;2023-08-07T06:07:43;99906.19;;;28.76;64.42
55932;BME280;41837;55.700;37.984;2023-08-07T06:10:09;99905.03;;;28.47;66.25
55932;BME280;41837;55.700;37.984;2023-08-07T06:12:35;99900.44;;;28.56;67.41
55932;BME280;41837;55.700;37.984;2023-08-07T06:15:01;99898.28;;;29.81;63.00
55932;BME280;41837;55.700;37.984;2023-08-07T06:17:30;99904.66;;;29.94;64.32
55932;BME280;41837;55.700;37.984;2023-08-07T06:19:56;99905.19;;;28.46;63.74
55932;BME280;41837;55.700;37.984;2023-08-07T06:22:22;99889.72;;;28.94;64.99
55932;BME280;41837;55.700;37.984;2023-08-07T06:24:49;99898.94;;;28.54;64.71
55932;BME280;41837;55.700;37.984;2023-08-07T06:27:16;99892.38;;;28.79;65.08
55932;BME280;41837;55.700;37.984;2023-08-07T06:29:42;99897.88;;;28.86;62.30
55932;BME280;41837;55.700;37.984;2023-08-07T06:32:08;99890.03;;;29.14;62.85
55932;BME280;41837;55.700;37.984;2023-08-07T06:34:36;99889.69;;;28.79;64.15
55932;BME280;41837;55.700;37.984;2023-08-07T06:37:05;99887.13;;;28.63;63.49
55932;BME280;41837;55.700;37.984;2023-08-07T06:39:31;99888.06;;;29.31;61.53
55932;BME280;41837;55.700;37.984;2023-08-07T06:41:57;99886.22;;;28.94;61.71
55932;BME280;41837;55.700;37.984;2023-08-07T06:44:30;99890.59;;;28.17;65.57
55932;BME280;41837;55.700;37.984;2023-08-07T06:46:57;99891.22;;;29.12;62.10
55932;BME280;41837;55.700;37.984;2023-08-07T06:49:24;99880.66;;;29.10;63.38
55932;BME280;41837;55.700;37.984;2023-08-07T06:51:50;99877.16;;;28.87;62.82
55932;BME280;41837;55.700;37.984;2023-08-07T06:54:16;99884.13;;;28.03;64.76
55932;BME280;41837;55.700;37.984;2023-08-07T06:56:43;99876.38;;;28.08;64.92
55932;BME280;41837;55.700;37.984;2023-08-07T06:59:10;99871.03;;;29.61;62.53
55932;BME280;41837;55.700;37.984;2023-08-07T07:01:36;99885.78;;;28.36;62.08
55932;BME280;41837;55.700;37.984;2023-08-07T07:04:02;99875.78;;;29.58;59.38
55932;BME280;41837;55.700;37.984;2023-08-07T07:06:30;99875.66;;;28.15;62.85
55932;BME280;41837;55.700;37.984;2023-08-07T07:08:57;99869.41;;;28.45;62.92
55932;BME280;41837;55.700;37.984;2023-08-07T07:11:23;99871.31;;;29.36;61.66
55932;BME280;41837;55.700;37.984;2023-08-07T07:13:51;99879.22;;;28.84;59.36
55932;BME280;41837;55.700;37.984;2023-08-07T07:16:20;99867.69;;;27.90;63.12
55932;BME280;41837;55.700;37.984;2023-08-07T07:18:53;99852.22;;;28.93;60.63
55932;BME280;41837;55.700;37.984;2023-08-07T07:21:22;99881.72;;;28.40;62.72
55932;BME280;41837;55.700;37.984;2023-08-07T07:23:48;99852.28;;;28.46;60.91
55932;BME280;41837;55.700;37.984;2023-08-07T07:26:14;99859.88;;;28.66;62.28
55932;BME280;41837;55.700;37.984;2023-08-07T07:28:42;99866.66;;;28.07;61.82
55932;BME280;41837;55.700;37.984;2023-08-07T07:31:08;99851.00;;;28.80;59.93
55932;BME280;41837;55.700;37.984;2023-08-07T07:33:37;99853.91;;;28.94;60.12
55932;BME280;41837;55.700;37.984;2023-08-07T07:36:05;99848.47;;;28.64;60.31
55932;BME280;41837;55.700;37.984;2023-08-07T07:38:32;99874.75;;;27.91;61.54
55932;BME280;41837;55.700;37.984;2023-08-07T07:40:58;99852.66;;;28.12;60.64
55932;BME280;41837;55.700;37.984;2023-08-07T07:43:26;99848.19;;;28.51;61.17
55932;BME280;41837;55.700;37.984;2023-08-07T07:45:52;99853.69;;;29.48;56.60
55932;BME280;41837;55.700;37.984;2023-08-07T07:48:18;99855.31;;;28.67;58.27
55932;BME280;41837;55.700;37.984;2023-08-07T07:50:44;99849.66;;;28.38;60.35
55932;BME280;41837;55.700;37.984;2023-08-07T07:53:11;99839.94;;;28.06;60.46
55932;BME280;41837;55.700;37.984;2023-08-07T07:55:37;99846.19;;;28.91;60.34
55932;BME280;41837;55.700;37.984;2023-08-07T07:58:04;99858.66;;;28.45;59.10
55932;BME280;41837;55.700;37.984;2023-08-07T08:00:30;99853.44;;;28.44;58.85
55932;BME280;41837;55.700;37.984;2023-08-07T08:02:56;99844.59;;;28.81;57.96
55932;BME280;41837;55.700;37.984;2023-08-07T08:05:22;99840.44;;;29.09;57.65
55932;BME280;41837;55.700;37.984;2023-08-07T08:07:49;99833.88;;;29.11;58.44
55932;BME280;41837;55.700;37.984;2023-08-07T08:10:16;99825.69;;;28.90;56.08
55932;BME280;41837;55.700;37.984;2023-08-07T08:12:42;99845.69;;;28.72;55.75
55932;BME280;41837;55.700;37.984;2023-08-07T08:15:09;99832.97;;;29.49;55.53
55932;BME280;41837;55.700;37.984;2023-08-07T08:17:35;99830.53;;;29.09;56.16
55932;BME280;41837;55.700;37.984;2023-08-07T08:20:01;99829.50;;;29.10;55.84
55932;BME280;41837;55.700;37.984;2023-08-07T08:22:30;99836.84;;;28.40;56.01
55932;BME280;41837;55.700;37.984;2023-08-07T08:24:56;99813.19;;;28.36;57.22
55932;BME280;41837;55.700;37.984;2023-08-07T08:27:22;99812.22;;;28.52;57.62
55932;BME280;41837;55.700;37.984;2023-08-07T08:29:51;99829.09;;;27.91;58.33
55932;BME280;41837;55.700;37.984;2023-08-07T08:32:17;99832.09;;;27.65;59.66
55932;BME280;41837;55.700;37.984;2023-08-07T08:34:43;99812.63;;;27.54;59.44
55932;BME280;41837;55.700;37.984;2023-08-07T08:37:09;99829.69;;;27.30;60.48
55932;BME280;41837;55.700;37.984;2023-08-07T08:39:37;99807.34;;;27.78;60.76
55932;BME280;41837;55.700;37.984;2023-08-07T08:42:04;99807.06;;;27.64;60.31
55932;BME280;41837;55.700;37.984;2023-08-07T08:44:31;99791.31;;;28.16;60.11
55932;BME280;41837;55.700;37.984;2023-08-07T08:47:03;99798.50;;;28.23;59.21
55932;BME280;41837;55.700;37.984;2023-08-07T08:49:35;99813.06;;;28.29;60.05
55932;BME280;41837;55.700;37.984;2023-08-07T08:52:04;99811.81;;;28.40;59.13
55932;BME280;41837;55.700;37.984;2023-08-07T08:54:30;99808.13;;;27.86;56.94
55932;BME280;41837;55.700;37.984;2023-08-07T08:56:57;99806.78;;;28.14;57.51
55932;BME280;41837;55.700;37.984;2023-08-07T08:59:26;99801.47;;;28.05;58.00
55932;BME280;41837;55.700;37.984;2023-08-07T09:01:52;99803.22;;;28.21;58.22
55932;BME280;41837;55.700;37.984;2023-08-07T09:04:19;99801.06;;;28.40;57.53
55932;BME280;41837;55.700;37.984;2023-08-07T09:06:46;99790.41;;;28.84;55.23
55932;BME280;41837;55.700;37.984;2023-08-07T09:09:14;99790.03;;;28.50;57.78
55932;BME280;41837;55.700;37.984;2023-08-07T09:11:41;99789.75;;;28.44;56.52
55932;BME280;41837;55.700;37.984;2023-08-07T09:14:09;99770.75;;;28.84;57.48
55932;BME280;41837;55.700;37.984;2023-08-07T09:16:39;99780.56;;;28.16;57.21
55932;BME280;41837;55.700;37.984;2023-08-07T09:19:05;99767.75;;;28.64;55.82
55932;BME280;41837;55.700;37.984;2023-08-07T09:21:34;99768.25;;;28.44;56.29
55932;BME280;41837;55.700;37.984;2023-08-07T09:24:00;99767.78;;;28.79;55.04
55932;BME280;41837;55.700;37.984;2023-08-07T09:26:26;99772.13;;;28.80;55.07
55932;BME280;41837;55.700;37.984;2023-08-07T09:28:53;99768.72;;;28.86;55.36
55932;BME280;41837;55.700;37.984;2023-08-07T09:31:20;99764.19;;;28.49;54.95
55932;BME280;41837;55.700;37.984;2023-08-07T09:33:48;99775.75;;;28.72;53.74
55932;BME280;41837;55.700;37.984;2023-08-07T09:36:15;99766.19;;;28.70;53.80
55932;BME280;41837;55.700;37.984;2023-08-07T09:38:41;99760.56;;;28.94;53.89
55932;BME280;41837;55.700;37.984;2023-08-07T09:41:08;99753.06;;;28.52;54.60
55932;BME280;41837;55.700;37.984;2023-08-07T09:43:35;99743.28;;;28.89;54.04
55932;BME280;41837;55.700;37.984;2023-08-07T09:46:05;99749.63;;;28.96;54.04
55932;BME280;41837;55.700;37.984;2023-08-07T09:48:39;99766.13;;;28.55;54.15
55932;BME280;41837;55.700;37.984;2023-08-07T09:51:06;99758.22;;;28.76;53.43
55932;BME280;41837;55.700;37.984;2023-08-07T09:53:32;99751.44;;;28.04;54.33
55932;BME280;41837;55.700;37.984;2023-08-07T09:56:00;99756.00;;;28.42;53.11
55932;BME280;41837;55.700;37.984;2023-08-07T09:58:26;99758.28;;;28.68;54.17
55932;BME280;41837;55.700;37.984;2023-08-07T10:00:55;99745.38;;;28.25;54.02
55932;BME280;41837;55.700;37.984;2023-08-07T10:03:26;99751.75;;;28.09;55.37
55932;BME280;41837;55.700;37.984;2023-08-07T10:05:52;99737.31;;;28.25;55.09
55932;BME280;41837;55.700;37.984;2023-08-07T10:08:21;99739.41;;;28.91;54.83
55932;BME280;41837;55.700;37.984;2023-08-07T10:10:47;99748.56;;;28.67;53.88
55932;BME280;41837;55.700;37.984;2023-08-07T10:13:14;99734.84;;;28.92;53.84
55932;BME280;41837;55.700;37.984;2023-08-07T10:15:40;99726.97;;;28.75;54.33
55932;BME280;41837;55.700;37.984;2023-08-07T10:18:11;99750.38;;;29.19;53.40
55932;BME280;41837;55.700;37.984;2023-08-07T10:20:38;99731.81;;;29.25;53.67
55932;BME280;41837;55.700;37.984;2023-08-07T10:23:09;99721.41;;;29.58;51.95
55932;BME280;41837;55.700;37.984;2023-08-07T10:25:41;99729.81;;;29.03;52.28
55932;BME280;41837;55.700;37.984;2023-08-07T10:28:13;99724.53;;;28.65;53.41
55932;BME280;41837;55.700;37.984;2023-08-07T10:30:41;99723.81;;;29.01;53.57
55932;BME280;41837;55.700;37.984;2023-08-07T10:33:10;99702.00;;;28.67;51.67
55932;BME280;41837;55.700;37.984;2023-08-07T10:35:44;99724.09;;;28.77;51.71
55932;BME280;41837;55.700;37.984;2023-08-07T10:38:11;99719.72;;;29.20;51.38
55932;BME280;41837;55.700;37.984;2023-08-07T10:41:12;99720.00;;;28.96;52.66
55932;BME280;41837;55.700;37.984;2023-08-07T10:43:43;99707.84;;;29.00;52.77
55932;BME280;41837;55.700;37.984;2023-08-07T10:46:14;99705.06;;;28.93;53.03
55932;BME280;41837;55.700;37.984;2023-08-07T10:48:45;99701.53;;;28.93;53.49
55932;BME280;41837;55.700;37.984;2023-08-07T10:51:15;99706.09;;;28.62;53.67
55932;BME280;41837;55.700;37.984;2023-08-07T10:53:43;99700.09;;;29.42;54.50
55932;BME280;41837;55.700;37.984;2023-08-07T10:56:16;99691.88;;;29.13;53.66
55932;BME280;41837;55.700;37.984;2023-08-07T10:58:49;99676.81;;;29.34;51.79
55932;BME280;41837;55.700;37.984;2023-08-07T11:01:41;99673.91;;;28.99;53.00
55932;BME280;41837;55.700;37.984;2023-08-07T11:04:09;99680.34;;;29.56;52.91
55932;BME280;41837;55.700;37.984;2023-08-07T11:06:37;99669.50;;;29.13;51.24
55932;BME280;41837;55.700;37.984;2023-08-07T11:09:08;99670.25;;;29.07;51.58
55932;BME280;41837;55.700;37.984;2023-08-07T11:11:42;99670.00;;;28.87;53.37
55932;BME280;41837;55.700;37.984;2023-08-07T11:14:18;99683.81;;;28.98;53.52
55932;BME280;41837;55.700;37.984;2023-08-07T11:16:47;99661.06;;;29.01;52.72
55932;BME280;41837;55.700;37.984;2023-08-07T11:19:15;99659.00;;;29.33;52.73
55932;BME280;41837;55.700;37.984;2023-08-07T11:21:43;99657.91;;;29.49;53.34
55932;BME280;41837;55.700;37.984;2023-08-07T11:24:13;99657.34;;;29.53;52.93
55932;BME280;41837;55.700;37.984;2023-08-07T11:26:45;99664.94;;;29.50;53.35
55932;BME280;41837;55.700;37.984;2023-08-07T11:29:16;99654.66;;;29.53;53.42
55932;BME280;41837;55.700;37.984;2023-08-07T11:31:43;99658.47;;;29.44;53.11
55932;BME280;41837;55.700;37.984;2023-08-07T11:34:10;99648.22;;;29.33;52.76
55932;BME280;41837;55.700;37.984;2023-08-07T11:36:43;99646.31;;;28.97;52.93
55932;BME280;41837;55.700;37.984;2023-08-07T11:39:11;99647.28;;;29.26;53.42
55932;BME280;41837;55.700;37.984;2023-08-07T11:41:38;99646.31;;;29.48;53.65
55932;BME280;41837;55.700;37.984;2023-08-07T11:44:04;99646.63;;;29.82;53.06
55932;BME280;41837;55.700;37.984;2023-08-07T11:46:33;99645.69;;;29.89;52.35
55932;BME280;41837;55.700;37.984;2023-08-07T11:49:00;99646.41;;;29.18;52.11
55932;BME280;41837;55.700;37.984;2023-08-07T11:51:28;99641.72;;;29.12;52.76
55932;BME280;41837;55.700;37.984;2023-08-07T11:53:54;99640.91;;;29.27;51.56
55932;BME280;41837;55.700;37.984;2023-08-07T11:56:25;99640.66;;;29.43;52.85
55932;BME280;41837;55.700;37.984;2023-08-07T11:58:52;99631.94;;;29.63;52.70
55932;BME280;41837;55.700;37.984;2023-08-07T12:01:25;99630.88;;;29.06;53.79
55932;BME280;41837;55.700;37.984;2023-08-07T12:06:31;99609.13;;;29.58;53.46
55932;BME280;41837;55.700;37.984;2023-08-07T12:08:59;99612.56;;;29.52;53.77
55932;BME280;41837;55.700;37.984;2023-08-07T12:11:25;99607.50;;;29.21;53.67
55932;BME280;41837;55.700;37.984;2023-08-07T12:13:51;99622.63;;;29.07;53.81
55932;BME280;41837;55.700;37.984;2023-08-07T12:16:17;99601.09;;;29.07;53.92
55932;BME280;41837;55.700;37.984;2023-08-07T12:18:46;99599.91;;;29.10;53.66
55932;BME280;41837;55.700;37.984;2023-08-07T12:21:17;99601.34;;;29.12;53.73
55932;BME280;41837;55.700;37.984;2023-08-07T12:23:45;99596.03;;;29.34;52.32
55932;BME280;41837;55.700;37.984;2023-08-07T12:26:15;99596.16;;;29.47;52.82
55932;BME280;41837;55.700;37.984;2023-08-07T12:28:43;99613.41;;;29.31;53.42
55932;BME280;41837;55.700;37.984;2023-08-07T12:31:09;99604.28;;;29.32;52.71
55932;BME280;41837;55.700;37.984;2023-08-07T12:33:36;99593.03;;;29.44;53.37
55932;BME280;41837;55.700;37.984;2023-08-07T12:36:02;99588.53;;;29.29;53.10
55932;BME280;41837;55.700;37.984;2023-08-07T12:38:29;99595.44;;;29.17;53.38
55932;BME280;41837;55.700;37.984;2023-08-07T12:40:56;99594.38;;;29.33;53.06
55932;BME280;41837;55.700;37.984;2023-08-07T12:43:23;99591.41;;;29.28;54.09
55932;BME280;41837;55.700;37.984;2023-08-07T12:45:49;99578.38;;;29.10;53.73
55932;BME280;41837;55.700;37.984;2023-08-07T12:48:15;99578.81;;;29.13;53.32
55932;BME280;41837;55.700;37.984;2023-08-07T12:50:42;99588.94;;;29.26;53.49